createdAt,value
2023-04-26T00:00:09.762Z,93705.69
2023-04-26T00:02:11.986Z,93705.88
2023-04-26T00:04:14.336Z,93702.34
2023-04-26T00:06:16.460Z,93702.06
2023-04-26T00:08:18.036Z,93700.44
2023-04-26T00:10:19.737Z,93696.81
2023-04-26T00:12:22.255Z,93692.38
2023-04-26T00:14:24.083Z,93691.84
2023-04-26T00:16:25.852Z,93682.59
2023-04-26T00:18:27.477Z,93673.53
2023-04-26T00:20:29.203Z,93672.53
2023-04-26T00:22:31.472Z,93674.13
2023-04-26T00:24:33.231Z,93678.91
2023-04-26T00:26:35.142Z,93680.09
2023-04-26T00:28:36.753Z,93673.63
2023-04-26T00:30:41.317Z,93675.16
2023-04-26T00:32:42.984Z,93673.91
2023-04-26T00:34:44.583Z,93671.69
2023-04-26T00:36:46.190Z,93671.84
2023-04-26T00:38:47.937Z,93667.88
2023-04-26T00:40:49.548Z,93668.50
2023-04-26T00:42:57.883Z,93668.09
2023-04-26T00:44:59.483Z,93665.69
2023-04-26T00:47:01.702Z,93667.06
2023-04-26T00:49:03.595Z,93667.41
2023-04-26T00:51:06.116Z,93670.66
2023-04-26T00:53:08.596Z,93675.91
2023-04-26T00:55:10.517Z,93671.50
2023-04-26T00:57:12.874Z,93669.69
2023-04-26T00:59:14.522Z,93667.69
2023-04-26T01:01:16.141Z,93671.50
2023-04-26T01:03:18.249Z,93674.94
2023-04-26T01:05:20.106Z,93674.31
2023-04-26T01:07:21.654Z,93678.13
2023-04-26T01:09:23.230Z,93679.28
2023-04-26T01:11:25.094Z,93680.66
2023-04-26T01:13:26.878Z,93680.84
2023-04-26T01:15:30.383Z,93680.22
2023-04-26T01:17:32.099Z,93682.03
2023-04-26T01:19:33.738Z,93680.16
2023-04-26T01:21:35.368Z,93667.84
2023-04-26T01:23:36.960Z,93661.38
2023-04-26T01:25:38.801Z,93658.13
2023-04-26T01:27:40.466Z,93658.69
2023-04-26T01:29:42.176Z,93657.06
2023-04-26T01:31:44.028Z,93660.03
2023-04-26T01:33:45.801Z,93667.91
2023-04-26T01:35:47.419Z,93665.91
2023-04-26T01:37:49.070Z,93670.63
2023-04-26T01:39:50.783Z,93670.63
2023-04-26T01:41:52.462Z,93667.03
2023-04-26T01:43:54.117Z,93669.28
2023-04-26T01:45:55.803Z,93681.38
2023-04-26T01:47:58.224Z,93683.72
2023-04-26T01:49:59.826Z,93683.84
2023-04-26T01:52:01.476Z,93681.91
2023-04-26T01:54:03.399Z,93674.06
2023-04-26T01:56:05.979Z,93672.31
2023-04-26T01:58:07.646Z,93670.50
2023-04-26T02:00:09.866Z,93667.53
2023-04-26T02:02:11.545Z,93659.97
2023-04-26T02:04:13.321Z,93657.59
2023-04-26T02:06:14.875Z,93645.97
2023-04-26T02:08:16.414Z,93648.34
2023-04-26T02:10:18.198Z,93650.94
2023-04-26T02:12:19.767Z,93659.16
2023-04-26T02:14:21.353Z,93658.06
2023-04-26T02:16:23.145Z,93647.78
2023-04-26T02:18:25.277Z,93652.09
2023-04-26T02:20:26.907Z,93645.34
2023-04-26T02:22:29.657Z,93651.03
2023-04-26T02:24:33.051Z,93646.69
2023-04-26T02:26:35.078Z,93643.91
2023-04-26T02:28:36.946Z,93647.16
2023-04-26T02:30:38.679Z,93643.75
2023-04-26T02:32:40.380Z,93642.91
2023-04-26T02:34:43.181Z,93650.09
2023-04-26T02:36:44.797Z,93651.66
2023-04-26T02:38:46.539Z,93654.38
2023-04-26T02:40:48.207Z,93658.59
2023-04-26T02:42:49.840Z,93654.97
2023-04-26T02:44:51.920Z,93652.19
2023-04-26T02:46:53.595Z,93648.59
2023-04-26T02:48:55.640Z,93646.03
2023-04-26T02:50:57.431Z,93635.19
2023-04-26T02:52:59.111Z,93639.06
2023-04-26T02:55:01.297Z,93634.28
2023-04-26T02:57:02.907Z,93630.22
2023-04-26T02:59:04.546Z,93632.00
2023-04-26T03:01:06.186Z,93631.03
2023-04-26T03:03:08.051Z,93638.72
2023-04-26T03:05:10.681Z,93631.28
2023-04-26T03:07:12.320Z,93636.34
2023-04-26T03:09:13.986Z,93630.09
2023-04-26T03:11:15.598Z,93639.59
2023-04-26T03:13:17.168Z,93634.53
2023-04-26T03:15:18.809Z,93638.56
2023-04-26T03:17:20.402Z,93636.41
2023-04-26T03:19:22.033Z,93639.25
2023-04-26T03:21:23.755Z,93631.09
2023-04-26T03:23:25.435Z,93631.94
2023-04-26T03:25:27.091Z,93636.06
2023-04-26T03:27:28.711Z,93636.22
2023-04-26T03:29:30.656Z,93632.91
2023-04-26T03:31:32.271Z,93636.31
2023-04-26T03:33:33.877Z,93638.84
2023-04-26T03:35:35.500Z,93632.44
2023-04-26T03:37:39.882Z,93633.69
2023-04-26T03:39:41.657Z,93634.50
2023-04-26T03:41:43.349Z,93644.69
2023-04-26T03:43:45.053Z,93637.91
2023-04-26T03:45:50.183Z,93647.25
2023-04-26T03:47:51.868Z,93654.97
2023-04-26T03:49:53.468Z,93651.63
2023-04-26T03:51:55.035Z,93653.28
2023-04-26T03:53:56.599Z,93650.09
2023-04-26T03:55:58.386Z,93657.66
2023-04-26T03:58:00.039Z,93652.13
2023-04-26T04:00:01.892Z,93653.63
2023-04-26T04:02:03.498Z,93657.44
2023-04-26T04:04:05.558Z,93661.22
2023-04-26T04:06:08.042Z,93664.31
2023-04-26T04:08:09.725Z,93659.13
2023-04-26T04:10:11.599Z,93658.75
2023-04-26T04:12:13.274Z,93662.78
2023-04-26T04:14:14.844Z,93663.44
2023-04-26T04:16:16.575Z,93669.34
2023-04-26T04:18:18.219Z,93673.16
2023-04-26T04:20:21.455Z,93673.91
2023-04-26T04:22:23.081Z,93669.22
2023-04-26T04:24:24.714Z,93678.53
2023-04-26T04:26:28.029Z,93674.44
2023-04-26T04:28:29.964Z,93673.66
2023-04-26T04:30:32.107Z,93678.06
2023-04-26T04:32:33.746Z,93684.13
2023-04-26T04:34:36.342Z,93685.41
2023-04-26T04:36:39.052Z,93678.28
2023-04-26T04:38:40.907Z,93677.88
2023-04-26T04:40:42.532Z,93690.97
2023-04-26T04:42:45.038Z,93680.38
2023-04-26T04:44:46.732Z,93678.91
2023-04-26T04:46:48.441Z,93679.53
2023-04-26T04:48:50.308Z,93683.47
2023-04-26T04:50:52.812Z,93691.06
2023-04-26T04:52:54.407Z,93686.13
2023-04-26T04:54:56.091Z,93690.75
2023-04-26T04:56:57.708Z,93693.63
2023-04-26T04:58:59.281Z,93698.22
2023-04-26T05:01:01.357Z,93689.78
2023-04-26T05:03:03.321Z,93683.34
2023-04-26T05:05:05.602Z,93690.78
2023-04-26T05:07:07.835Z,93675.66
2023-04-26T05:09:09.622Z,93677.59
2023-04-26T05:11:11.248Z,93687.59
2023-04-26T05:13:12.863Z,93681.16
2023-04-26T05:15:14.674Z,93683.84
2023-04-26T05:17:16.385Z,93683.41
2023-04-26T05:19:18.069Z,93685.47
2023-04-26T05:21:19.944Z,93689.06
2023-04-26T05:23:21.569Z,93686.41
2023-04-26T05:25:23.202Z,93695.50
2023-04-26T05:27:24.871Z,93695.44
2023-04-26T05:29:32.675Z,93682.97
2023-04-26T05:31:34.287Z,93684.72
2023-04-26T05:33:36.034Z,93689.31
2023-04-26T05:35:37.637Z,93690.00
2023-04-26T05:37:40.062Z,93697.31
2023-04-26T05:39:41.727Z,93696.81
2023-04-26T05:41:43.513Z,93696.44
2023-04-26T05:43:46.371Z,93696.91
2023-04-26T05:45:57.266Z,93703.19
2023-04-26T05:47:58.995Z,93706.78
2023-04-26T05:50:00.586Z,93705.56
2023-04-26T05:52:03.961Z,93705.81
2023-04-26T05:54:05.848Z,93705.50
2023-04-26T05:56:07.692Z,93698.63
2023-04-26T05:58:09.982Z,93707.22
2023-04-26T06:00:12.607Z,93708.22
2023-04-26T06:02:14.278Z,93707.69
2023-04-26T06:04:16.233Z,93708.53
2023-04-26T06:06:18.874Z,93709.56
2023-04-26T06:08:20.467Z,93714.50
2023-04-26T06:10:22.234Z,93707.47
2023-04-26T06:12:23.889Z,93708.00
2023-04-26T06:14:30.408Z,93709.19
2023-04-26T06:16:32.688Z,93707.06
2023-04-26T06:18:34.290Z,93717.44
2023-04-26T06:20:36.240Z,93713.13
2023-04-26T06:22:38.765Z,93729.28
2023-04-26T06:24:41.107Z,93716.47
2023-04-26T06:26:42.672Z,93719.94
2023-04-26T06:28:44.286Z,93715.91
2023-04-26T06:30:45.994Z,93717.50
2023-04-26T06:32:48.455Z,93718.06
2023-04-26T06:34:50.219Z,93725.09
2023-04-26T06:36:51.990Z,93721.03
2023-04-26T06:38:53.771Z,93714.22
2023-04-26T06:40:55.415Z,93725.47
2023-04-26T06:45:17.134Z,93729.78
2023-04-26T06:47:18.720Z,93725.97
2023-04-26T06:49:20.369Z,93725.53
2023-04-26T06:51:22.050Z,93720.16
2023-04-26T06:53:23.631Z,93758.69
2023-04-26T06:55:25.418Z,93730.78
2023-04-26T06:57:27.118Z,93750.56
2023-04-26T06:59:28.786Z,93736.94
2023-04-26T07:01:33.776Z,93736.59
2023-04-26T07:03:35.796Z,93734.88
2023-04-26T07:05:39.601Z,93736.25
2023-04-26T07:07:41.410Z,93730.31
2023-04-26T07:09:43.542Z,93738.91
2023-04-26T07:11:47.985Z,93742.81
2023-04-26T07:13:50.104Z,93730.66
2023-04-26T07:15:51.916Z,93732.88
2023-04-26T07:17:53.608Z,93730.75
2023-04-26T07:19:56.193Z,93731.97
2023-04-26T07:21:57.959Z,93731.25
2023-04-26T07:23:59.681Z,93731.34
2023-04-26T07:26:04.602Z,93731.16
2023-04-26T07:28:06.268Z,93724.06
2023-04-26T07:30:08.508Z,93733.78
2023-04-26T07:32:10.155Z,93731.06
2023-04-26T07:34:11.831Z,93740.38
2023-04-26T07:36:13.464Z,93746.25
2023-04-26T07:38:19.628Z,93738.13
2023-04-26T07:40:22.891Z,93741.44
2023-04-26T07:42:24.590Z,93750.19
2023-04-26T07:44:26.502Z,93752.38
2023-04-26T07:46:28.132Z,93756.19
2023-04-26T07:48:29.791Z,93751.13
2023-04-26T07:50:31.442Z,93758.19
2023-04-26T07:52:33.100Z,93765.25
2023-04-26T07:54:34.859Z,93757.66
2023-04-26T07:56:36.448Z,93760.91
2023-04-26T07:58:39.656Z,93780.72
2023-04-26T08:00:41.786Z,93758.63
2023-04-26T08:02:45.487Z,93757.94
2023-04-26T08:04:57.871Z,93758.66
2023-04-26T08:07:03.003Z,93764.72
2023-04-26T08:09:05.295Z,93769.63
2023-04-26T08:11:10.664Z,93768.50
2023-04-26T08:13:12.277Z,93770.78
2023-04-26T08:15:13.985Z,93769.72
2023-04-26T08:17:15.809Z,93757.34
2023-04-26T08:19:17.477Z,93764.34
2023-04-26T08:21:19.096Z,93772.44
2023-04-26T08:23:21.501Z,93767.31
2023-04-26T08:25:23.901Z,93750.81
2023-04-26T08:27:26.343Z,93765.06
2023-04-26T08:29:28.105Z,93756.00
2023-04-26T08:31:29.779Z,93755.28
2023-04-26T08:33:31.632Z,93759.31
2023-04-26T08:35:33.350Z,93757.56
2023-04-26T08:37:35.899Z,93764.59
2023-04-26T08:39:37.598Z,93757.22
2023-04-26T08:41:45.811Z,93755.22
2023-04-26T08:43:47.894Z,93756.94
2023-04-26T08:45:49.573Z,93753.72
2023-04-26T08:47:53.713Z,93750.41
2023-04-26T08:50:00.966Z,93755.44
2023-04-26T08:52:04.685Z,93760.38
2023-04-26T08:54:06.544Z,93757.19
2023-04-26T08:56:08.813Z,93753.09
2023-04-26T08:58:11.995Z,93761.59
2023-04-26T09:00:15.862Z,93759.16
2023-04-26T09:02:19.918Z,93763.25
2023-04-26T09:04:21.766Z,93764.56
2023-04-26T09:06:23.775Z,93760.38
2023-04-26T09:08:25.454Z,93759.16
2023-04-26T09:10:27.265Z,93758.03
2023-04-26T09:12:28.938Z,93774.13
2023-04-26T09:14:31.051Z,93768.06
2023-04-26T09:16:37.038Z,93781.72
2023-04-26T09:18:48.966Z,93772.22
2023-04-26T09:21:07.878Z,93779.13
2023-04-26T09:23:10.472Z,93767.63
2023-04-26T09:25:13.680Z,93768.25
2023-04-26T09:27:16.503Z,93770.03
2023-04-26T09:29:19.199Z,93777.41
2023-04-26T09:31:42.224Z,93773.28
2023-04-26T09:33:58.956Z,93770.50
2023-04-26T09:36:12.412Z,93781.28
2023-04-26T09:38:16.078Z,93770.41
2023-04-26T09:40:23.941Z,93767.78
2023-04-26T09:42:25.993Z,93759.31
2023-04-26T09:44:29.763Z,93760.56
2023-04-26T09:46:31.323Z,93759.78
2023-04-26T09:48:34.803Z,93764.25
2023-04-26T09:50:36.465Z,93762.41
2023-04-26T09:52:47.184Z,93750.72
2023-04-26T09:54:53.269Z,93760.16
2023-04-26T09:57:01.716Z,93753.50
2023-04-26T09:59:05.713Z,93744.59
2023-04-26T10:01:08.688Z,93757.34
2023-04-26T10:03:11.078Z,93752.28
2023-04-26T10:05:12.898Z,93745.56
2023-04-26T10:07:16.076Z,93751.63
2023-04-26T10:09:18.438Z,93748.72
2023-04-26T10:11:21.774Z,93750.06
2023-04-26T10:13:23.371Z,93748.84
2023-04-26T10:15:24.936Z,93743.56
2023-04-26T10:17:26.607Z,93748.41
2023-04-26T10:19:29.593Z,93761.78
2023-04-26T10:21:35.444Z,93744.16
2023-04-26T10:23:37.591Z,93740.31
2023-04-26T10:25:42.078Z,93743.38
2023-04-26T10:27:43.718Z,93748.03
2023-04-26T10:29:54.354Z,93750.22
2023-04-26T10:32:02.155Z,93756.81
2023-04-26T10:34:20.412Z,93734.41
2023-04-26T10:36:22.362Z,93750.44
2023-04-26T10:38:24.083Z,93742.94
2023-04-26T10:40:27.357Z,93747.81
2023-04-26T10:42:30.999Z,93746.97
2023-04-26T10:44:42.014Z,93746.38
2023-04-26T10:46:50.473Z,93744.97
2023-04-26T10:48:52.359Z,93731.81
2023-04-26T10:51:01.492Z,93720.47
2023-04-26T10:53:05.847Z,93732.63
2023-04-26T10:55:07.961Z,93744.41
2023-04-26T10:57:09.985Z,93728.19
2023-04-26T10:59:33.381Z,93732.66
2023-04-26T11:01:35.215Z,93724.69
2023-04-26T11:03:37.559Z,93739.72
2023-04-26T11:05:54.104Z,93734.44
2023-04-26T11:08:16.975Z,93737.72
2023-04-26T11:10:24.686Z,93743.97
2023-04-26T11:12:26.596Z,93742.75
2023-04-26T11:14:28.393Z,93737.91
2023-04-26T11:16:30.060Z,93724.94
2023-04-26T11:18:32.574Z,93736.03
2023-04-26T11:20:34.601Z,93732.44
2023-04-26T11:22:40.161Z,93721.50
2023-04-26T11:24:43.053Z,93722.69
2023-04-26T11:26:51.668Z,93724.06
2023-04-26T11:28:53.488Z,93740.94
2023-04-26T11:30:56.096Z,93744.59
2023-04-26T11:33:01.844Z,93737.91
2023-04-26T11:35:04.114Z,93745.13
2023-04-26T11:37:06.594Z,93750.69
2023-04-26T11:39:08.411Z,93732.25
2023-04-26T11:41:11.426Z,93739.69
2023-04-26T11:43:14.075Z,93757.50
2023-04-26T11:45:16.583Z,93733.22
2023-04-26T11:47:21.318Z,93738.31
2023-04-26T11:49:23.151Z,93729.38
2023-04-26T11:51:24.804Z,93740.53
2023-04-26T11:53:38.978Z,93723.50
2023-04-26T11:55:40.730Z,93727.13
2023-04-26T11:57:42.343Z,93739.69
2023-04-26T11:59:44.227Z,93730.59
2023-04-26T12:01:50.781Z,93730.41
2023-04-26T12:03:54.207Z,93723.31
2023-04-26T12:05:58.835Z,93741.31
2023-04-26T12:08:00.683Z,93726.56
2023-04-26T12:10:21.664Z,93718.03
2023-04-26T12:12:24.365Z,93722.47
2023-04-26T12:14:32.568Z,93732.41
2023-04-26T12:16:36.645Z,93730.00
2023-04-26T12:18:38.320Z,93724.91
2023-04-26T12:20:41.354Z,93724.53
2023-04-26T12:22:43.033Z,93734.25
2023-04-26T12:24:44.861Z,93719.66
2023-04-26T12:26:46.553Z,93723.94
2023-04-26T12:28:48.207Z,93753.28
2023-04-26T12:30:50.463Z,93726.53
2023-04-26T12:32:52.261Z,93730.78
2023-04-26T12:34:53.899Z,93730.16
2023-04-26T12:36:55.890Z,93723.91
2023-04-26T12:38:58.159Z,93720.06
2023-04-26T12:40:59.834Z,93736.44
2023-04-26T12:43:01.459Z,93728.19
2023-04-26T12:45:03.997Z,93714.00
2023-04-26T12:47:05.762Z,93711.53
2023-04-26T12:49:07.677Z,93751.47
2023-04-26T12:51:09.398Z,93713.19
2023-04-26T12:53:14.123Z,93707.31
2023-04-26T12:55:16.527Z,93706.84
2023-04-26T12:57:18.214Z,93712.47
2023-04-26T12:59:19.861Z,93709.44
2023-04-26T13:01:21.629Z,93719.28
2023-04-26T13:03:23.330Z,93733.22
2023-04-26T13:05:25.492Z,93728.97
2023-04-26T13:07:27.890Z,93750.84
2023-04-26T13:09:29.530Z,93745.38
2023-04-26T13:11:31.198Z,93729.00
2023-04-26T13:13:43.123Z,93733.75
2023-04-26T13:15:45.972Z,93760.59
2023-04-26T13:17:47.688Z,93749.31
2023-04-26T13:19:49.341Z,93742.72
2023-04-26T13:21:52.657Z,93750.94
2023-04-26T13:23:54.318Z,93765.19
2023-04-26T13:25:55.940Z,93768.94
2023-04-26T13:27:57.568Z,93758.81
2023-04-26T13:29:59.226Z,93759.94
2023-04-26T13:32:01.349Z,93766.47
2023-04-26T13:34:03.659Z,93762.50
2023-04-26T13:36:05.555Z,93767.13
2023-04-26T13:38:07.228Z,93768.59
2023-04-26T13:40:11.334Z,93761.34
2023-04-26T13:42:14.659Z,93764.19
2023-04-26T13:44:16.381Z,93774.38
2023-04-26T13:46:18.057Z,93768.78
2023-04-26T13:48:19.767Z,93783.25
2023-04-26T13:50:21.394Z,93776.22
2023-04-26T13:52:22.952Z,93774.06
2023-04-26T13:54:27.383Z,93777.63
2023-04-26T13:56:29.044Z,93782.97
2023-04-26T13:58:30.722Z,93783.00
2023-04-26T14:00:32.349Z,93786.50
2023-04-26T14:02:34.038Z,93783.84
2023-04-26T14:04:36.066Z,93802.38
2023-04-26T14:06:37.949Z,93793.88
2023-04-26T14:08:39.567Z,93808.69
2023-04-26T14:10:41.227Z,93799.81
2023-04-26T14:12:42.983Z,93810.66
2023-04-26T14:14:46.448Z,93810.84
2023-04-26T14:16:48.073Z,93815.41
2023-04-26T14:18:49.657Z,93809.16
2023-04-26T14:20:51.795Z,93809.69
2023-04-26T14:22:53.373Z,93820.97
2023-04-26T14:24:55.286Z,93824.28
2023-04-26T14:26:58.354Z,93831.84
2023-04-26T14:29:00.844Z,93849.19
2023-04-26T14:31:03.058Z,93822.56
2023-04-26T14:33:04.776Z,93843.28
2023-04-26T14:35:06.698Z,93833.75
2023-04-26T14:37:08.430Z,93833.75
2023-04-26T14:39:09.993Z,93844.22
2023-04-26T14:41:16.620Z,93852.84
2023-04-26T14:43:18.281Z,93842.63
2023-04-26T14:45:23.607Z,93851.97
2023-04-26T14:47:27.164Z,93853.03
2023-04-26T14:49:28.780Z,93861.25
2023-04-26T14:51:30.385Z,93863.91
2023-04-26T14:53:32.024Z,93857.94
2023-04-26T14:55:33.648Z,93857.03
2023-04-26T14:57:35.279Z,93859.13
2023-04-26T14:59:37.249Z,93852.28
2023-04-26T15:01:38.982Z,93872.44
2023-04-26T15:03:40.917Z,93877.25
2023-04-26T15:05:42.810Z,93877.28
2023-04-26T15:07:44.395Z,93878.03
2023-04-26T15:09:46.402Z,93888.44
2023-04-26T15:11:48.004Z,93881.53
2023-04-26T15:13:49.592Z,93878.91
2023-04-26T15:15:51.374Z,93889.69
2023-04-26T15:17:53.021Z,93904.88
2023-04-26T15:19:54.772Z,93919.50
2023-04-26T15:21:56.377Z,93911.38
2023-04-26T15:23:57.976Z,93910.28
2023-04-26T15:26:03.474Z,93909.56
2023-04-26T15:28:05.322Z,93917.78
2023-04-26T15:30:08.991Z,93915.06
2023-04-26T15:32:11.247Z,93914.56
2023-04-26T15:34:12.887Z,93926.28
2023-04-26T15:36:16.365Z,93938.22
2023-04-26T15:38:17.982Z,93923.28
2023-04-26T15:40:21.145Z,93928.78
2023-04-26T15:42:22.971Z,93933.97
2023-04-26T15:44:24.625Z,93932.78
2023-04-26T15:46:26.342Z,93931.63
2023-04-26T15:48:28.105Z,93936.97
2023-04-26T15:50:29.718Z,93939.66
2023-04-26T15:52:37.729Z,93954.03
2023-04-26T15:54:40.762Z,93943.88
2023-04-26T15:56:42.735Z,93946.25
2023-04-26T15:58:45.342Z,93949.06
2023-04-26T16:00:47.201Z,93952.94
2023-04-26T16:02:48.964Z,93948.34
2023-04-26T16:04:50.845Z,93943.97
2023-04-26T16:06:52.496Z,93960.09
2023-04-26T16:08:54.546Z,93961.81
2023-04-26T16:11:00.528Z,93952.13
2023-04-26T16:13:02.084Z,93959.38
2023-04-26T16:15:03.906Z,93966.22
2023-04-26T16:17:05.951Z,93961.88
2023-04-26T16:19:08.342Z,93970.25
2023-04-26T16:21:10.517Z,93973.69
2023-04-26T16:23:12.217Z,93978.44
2023-04-26T16:25:13.850Z,93970.72
2023-04-26T16:27:15.481Z,93973.63
2023-04-26T16:29:17.113Z,93980.97
2023-04-26T16:31:19.082Z,93979.94
2023-04-26T16:33:22.940Z,93989.91
2023-04-26T16:35:25.029Z,93991.53
2023-04-26T16:37:26.613Z,93987.09
2023-04-26T16:39:28.750Z,94000.50
2023-04-26T16:41:30.482Z,93996.31
2023-04-26T16:43:32.679Z,94002.47
2023-04-26T16:45:34.321Z,93998.19
2023-04-26T16:47:36.471Z,93996.91
2023-04-26T16:49:38.112Z,94008.31
2023-04-26T16:51:39.715Z,94002.59
2023-04-26T16:53:41.545Z,94014.81
2023-04-26T16:55:43.244Z,94004.56
2023-04-26T16:57:44.844Z,94007.66
2023-04-26T16:59:46.513Z,94011.25
2023-04-26T17:01:48.176Z,94017.25
2023-04-26T17:03:49.971Z,94014.28
2023-04-26T17:05:51.721Z,94013.22
2023-04-26T17:07:53.298Z,94021.84
2023-04-26T17:09:55.440Z,94032.13
2023-04-26T17:11:57.103Z,94029.78
2023-04-26T17:13:58.721Z,94034.19
2023-04-26T17:16:00.863Z,94035.69
2023-04-26T17:18:04.522Z,94047.72
2023-04-26T17:20:09.375Z,94043.44
2023-04-26T17:22:12.455Z,94047.44
2023-04-26T17:24:14.119Z,94055.13
2023-04-26T17:26:15.722Z,94051.72
2023-04-26T17:28:17.376Z,94057.06
2023-04-26T17:30:22.817Z,94062.66
2023-04-26T17:32:24.783Z,94069.06
2023-04-26T17:34:26.708Z,94072.75
2023-04-26T17:36:28.332Z,94065.34
2023-04-26T17:38:29.919Z,94070.28
2023-04-26T17:40:31.522Z,94073.53
2023-04-26T17:42:33.180Z,94072.28
2023-04-26T17:44:34.851Z,94076.38
2023-04-26T17:46:36.490Z,94072.28
2023-04-26T17:48:38.093Z,94081.06
2023-04-26T17:50:40.316Z,94086.97
2023-04-26T17:52:41.989Z,94077.06
2023-04-26T17:54:43.849Z,94079.56
2023-04-26T17:56:46.190Z,94077.78
2023-04-26T17:58:48.706Z,94089.63
2023-04-26T18:00:50.627Z,94092.13
2023-04-26T18:02:53.884Z,94087.75
2023-04-26T18:04:56.032Z,94104.28
2023-04-26T18:06:57.742Z,94103.72
2023-04-26T18:08:59.340Z,94099.31
2023-04-26T18:11:01.036Z,94102.38
2023-04-26T18:13:02.803Z,94107.91
2023-04-26T18:15:04.874Z,94115.88
2023-04-26T18:17:06.501Z,94118.78
2023-04-26T18:19:08.439Z,94122.09
2023-04-26T18:21:11.157Z,94137.13
2023-04-26T18:23:12.784Z,94134.25
2023-04-26T18:25:14.405Z,94141.09
2023-04-26T18:27:16.015Z,94137.63
2023-04-26T18:29:17.679Z,94140.56
2023-04-26T18:31:20.929Z,94143.91
2023-04-26T18:33:22.706Z,94148.34
2023-04-26T18:35:24.449Z,94149.34
2023-04-26T18:37:26.228Z,94151.47
2023-04-26T18:39:27.800Z,94151.59
2023-04-26T18:41:29.468Z,94144.00
2023-04-26T18:43:31.227Z,94152.03
2023-04-26T18:45:33.212Z,94148.25
2023-04-26T18:47:34.903Z,94151.84
2023-04-26T18:49:36.698Z,94159.16
2023-04-26T18:51:38.384Z,94154.19
2023-04-26T18:53:39.989Z,94156.00
2023-04-26T18:55:41.982Z,94158.16
2023-04-26T18:57:43.641Z,94159.75
2023-04-26T18:59:45.347Z,94169.06
2023-04-26T19:01:47.266Z,94172.34
2023-04-26T19:03:49.137Z,94167.09
2023-04-26T19:05:50.831Z,94166.28
2023-04-26T19:07:53.528Z,94177.78
2023-04-26T19:10:00.788Z,94172.63
2023-04-26T19:12:02.728Z,94174.59
2023-04-26T19:14:04.476Z,94180.06
2023-04-26T19:16:09.473Z,94169.84
2023-04-26T19:18:11.321Z,94176.31
2023-04-26T19:20:15.237Z,94185.00
2023-04-26T19:22:16.866Z,94181.56
2023-04-26T19:24:19.294Z,94179.13
2023-04-26T19:26:20.944Z,94190.41
2023-04-26T19:28:22.528Z,94185.66
2023-04-26T19:30:24.175Z,94182.75
2023-04-26T19:32:25.981Z,94181.50
2023-04-26T19:34:28.020Z,94192.47
2023-04-26T19:36:29.697Z,94194.91
2023-04-26T19:38:31.322Z,94192.97
2023-04-26T19:40:32.941Z,94196.28
2023-04-26T19:42:34.557Z,94183.50
2023-04-26T19:44:36.216Z,94192.47
2023-04-26T19:46:37.938Z,94190.69
2023-04-26T19:48:40.477Z,94190.97
2023-04-26T19:50:46.702Z,94204.59
2023-04-26T19:52:48.319Z,94192.84
2023-04-26T19:54:49.896Z,94200.53
2023-04-26T19:56:51.610Z,94206.44
2023-04-26T19:58:53.222Z,94195.97
2023-04-26T20:00:54.916Z,94203.81
2023-04-26T20:02:58.394Z,94217.41
2023-04-26T20:05:00.038Z,94206.53
2023-04-26T20:07:04.794Z,94215.63
2023-04-26T20:09:10.866Z,94214.69
2023-04-26T20:11:15.382Z,94214.19
2023-04-26T20:13:17.161Z,94210.59
2023-04-26T20:15:19.327Z,94220.56
2023-04-26T20:17:21.568Z,94219.25
2023-04-26T20:19:23.570Z,94216.47
2023-04-26T20:21:26.595Z,94220.56
2023-04-26T20:23:29.445Z,94221.84
2023-04-26T20:25:31.929Z,94222.69
2023-04-26T20:27:33.925Z,94221.09
2023-04-26T20:29:36.031Z,94220.59
2023-04-26T20:31:37.826Z,94227.13
2023-04-26T20:33:39.445Z,94231.41
2023-04-26T20:35:41.418Z,94227.78
2023-04-26T20:37:43.031Z,94233.19
2023-04-26T20:39:44.728Z,94239.63
2023-04-26T20:41:46.505Z,94223.72
2023-04-26T20:43:48.099Z,94227.34
2023-04-26T20:45:51.001Z,94228.47
2023-04-26T20:47:52.689Z,94235.53
2023-04-26T20:49:54.560Z,94233.09
2023-04-26T20:52:14.961Z,94236.69
2023-04-26T20:54:16.617Z,94231.63
2023-04-26T20:56:18.321Z,94244.50
2023-04-26T20:58:19.896Z,94243.53
2023-04-26T21:00:21.631Z,94236.50
2023-04-26T21:02:23.377Z,94261.34
2023-04-26T21:04:25.284Z,94250.44
2023-04-26T21:06:30.132Z,94258.59
2023-04-26T21:08:31.798Z,94250.59
2023-04-26T21:10:33.342Z,94261.66
2023-04-26T21:12:35.030Z,94263.63
2023-04-26T21:14:36.625Z,94260.41
2023-04-26T21:16:38.232Z,94259.75
2023-04-26T21:18:39.859Z,94266.44
2023-04-26T21:20:41.510Z,94261.19
2023-04-26T21:22:43.084Z,94268.41
2023-04-26T21:24:44.810Z,94271.31
2023-04-26T21:26:46.340Z,94278.72
2023-04-26T21:28:48.028Z,94271.66
2023-04-26T21:30:49.614Z,94284.75
2023-04-26T21:32:51.208Z,94280.78
2023-04-26T21:34:52.801Z,94277.53
2023-04-26T21:36:54.426Z,94279.00
2023-04-26T21:38:55.997Z,94282.44
2023-04-26T21:40:57.622Z,94290.63
2023-04-26T21:43:05.342Z,94289.28
2023-04-26T21:45:08.145Z,94289.78
2023-04-26T21:47:09.902Z,94288.19
2023-04-26T21:49:11.758Z,94288.34
2023-04-26T21:51:13.700Z,94293.56
2023-04-26T21:53:15.577Z,94289.16
2023-04-26T21:55:17.226Z,94302.56
2023-04-26T21:57:20.276Z,94305.66
2023-04-26T21:59:21.871Z,94310.06
2023-04-26T22:01:23.464Z,94305.66
2023-04-26T22:03:25.323Z,94304.50
2023-04-26T22:05:27.227Z,94304.66
2023-04-26T22:07:28.828Z,94303.38
2023-04-26T22:09:30.691Z,94305.66
2023-04-26T22:11:32.268Z,94303.88
2023-04-26T22:13:33.938Z,94317.75
2023-04-26T22:15:35.732Z,94310.72
2023-04-26T22:17:37.332Z,94307.28
2023-04-26T22:19:38.948Z,94312.81
2023-04-26T22:21:40.797Z,94309.22
2023-04-26T22:23:42.350Z,94325.75
2023-04-26T22:25:43.950Z,94316.88
2023-04-26T22:27:45.573Z,94313.13
2023-04-26T22:29:47.134Z,94325.19
2023-04-26T22:31:48.737Z,94330.09
2023-04-26T22:33:50.325Z,94325.22
2023-04-26T22:35:52.030Z,94329.97
2023-04-26T22:37:54.415Z,94326.34
2023-04-26T22:39:56.547Z,94316.22
2023-04-26T22:41:58.103Z,94336.78
2023-04-26T22:43:59.731Z,94324.22
2023-04-26T22:46:01.905Z,94330.41
2023-04-26T22:48:03.706Z,94332.34
2023-04-26T22:50:06.149Z,94342.50
2023-04-26T22:52:17.099Z,94326.63
2023-04-26T22:54:25.777Z,94338.03
2023-04-26T22:56:27.400Z,94342.25
2023-04-26T22:58:28.934Z,94340.47
2023-04-26T23:00:30.928Z,94341.19
2023-04-26T23:02:32.665Z,94332.06
2023-04-26T23:04:34.295Z,94338.63
2023-04-26T23:06:36.369Z,94333.69
2023-04-26T23:08:38.022Z,94336.94
2023-04-26T23:10:40.044Z,94338.59
2023-04-26T23:12:41.741Z,94334.31
2023-04-26T23:14:43.357Z,94325.81
2023-04-26T23:16:45.866Z,94332.03
2023-04-26T23:18:47.643Z,94327.63
2023-04-26T23:20:49.563Z,94323.34
2023-04-26T23:22:51.393Z,94329.25
2023-04-26T23:24:53.297Z,94324.97
2023-04-26T23:26:54.903Z,94327.28
2023-04-26T23:28:57.299Z,94329.28
2023-04-26T23:30:58.896Z,94327.97
2023-04-26T23:33:00.568Z,94336.88
2023-04-26T23:35:02.187Z,94324.94
2023-04-26T23:37:07.030Z,94324.31
2023-04-26T23:39:10.029Z,94318.25
2023-04-26T23:41:11.728Z,94318.72
2023-04-26T23:43:14.047Z,94324.81
2023-04-26T23:45:16.095Z,94319.50
2023-04-26T23:47:17.747Z,94324.91
2023-04-26T23:49:19.308Z,94323.59
2023-04-26T23:51:20.966Z,94323.06
2023-04-26T23:53:22.613Z,94335.13
2023-04-26T23:55:24.230Z,94328.47
2023-04-26T23:57:25.871Z,94339.41
2023-04-26T23:59:27.483Z,94334.16
